Time;durP1;ratioP1;P1;durP2;ratioP2;P2;SDS_P1;SDS_P2;PMS_P1;PMS_P2;Temp;Humidity;BMP_temperature;BMP_pressure;BME280_temperature;BME280_humidity;BME280_pressure;Samples;Min_cycle;Max_cycle;Signal;HPM_P1;HPM_P2
2024/03/29 05:01:35;;;;;;;1.38;0.57;;;6.40;99.90;;;;;;6252493;22;20274;-74
2024/03/29 05:04:02;;;;;;;0.77;0.60;;;6.50;99.90;;;;;;6307308;22;20207;-73
2024/03/29 05:06:30;;;;;;;0.30;0.30;;;6.50;99.90;;;;;;6307042;22;20269;-73
2024/03/29 05:08:56;;;;;;;0.50;0.50;;;6.50;99.90;;;;;;6306376;22;20605;-73
2024/03/29 05:11:23;;;;;;;0.63;0.63;;;6.60;99.90;;;;;;6305497;22;20203;-72
2024/03/29 05:13:50;;;;;;;0.45;0.45;;;6.60;99.90;;;;;;6315778;22;20176;-74
2024/03/29 05:16:17;;;;;;;0.40;0.40;;;6.60;99.90;;;;;;6305707;22;20252;-73
2024/03/29 05:18:45;;;;;;;0.50;0.40;;;6.70;99.90;;;;;;6305590;22;20208;-75
2024/03/29 05:21:11;;;;;;;0.47;0.47;;;6.60;99.90;;;;;;6305703;22;20221;-75
2024/03/29 05:23:38;;;;;;;0.50;0.50;;;6.60;99.90;;;;;;6305766;22;20187;-74
2024/03/29 05:26:05;;;;;;;1.00;0.50;;;6.50;99.90;;;;;;6315463;22;20196;-74
2024/03/29 05:28:31;;;;;;;0.30;0.30;;;6.40;99.90;;;;;;6305643;22;20516;-74
2024/03/29 05:31:12;;;;;;;0.50;0.50;;;6.40;99.90;;;;;;6315842;22;20206;-74
2024/03/29 05:33:39;;;;;;;0.50;0.50;;;6.30;99.90;;;;;;6305612;22;20597;-74
2024/03/29 05:36:10;;;;;;;0.68;0.60;;;6.30;99.90;;;;;;6305382;22;20174;-74
2024/03/29 05:38:37;;;;;;;0.20;0.20;;;6.30;99.90;;;;;;6305747;22;20186;-74
2024/03/29 05:41:04;;;;;;;0.63;0.63;;;6.30;99.90;;;;;;6305422;22;20204;-74
2024/03/29 05:43:30;;;;;;;0.57;0.28;;;6.40;99.90;;;;;;6305536;22;20187;-74
2024/03/29 05:45:57;;;;;;;0.50;0.50;;;6.40;99.90;;;;;;6315085;22;20219;-75
2024/03/29 05:48:24;;;;;;;0.30;0.30;;;6.40;99.90;;;;;;6305564;22;20176;-74
2024/03/29 05:50:51;;;;;;;3.42;0.40;;;6.40;99.90;;;;;;6305334;22;20204;-75
2024/03/29 05:53:19;;;;;;;1.20;0.63;;;6.50;99.90;;;;;;6305885;22;20179;-74
2024/03/29 05:55:46;;;;;;;0.95;0.40;;;6.50;99.90;;;;;;6305621;22;20178;-75
2024/03/29 05:58:17;;;;;;;1.95;0.65;;;6.50;99.90;;;;;;6305738;22;20183;-74
2024/03/29 06:00:43;;;;;;;0.35;0.30;;;6.60;99.90;;;;;;6305466;22;20585;-76
2024/03/29 06:03:10;;;;;;;1.85;0.98;;;6.70;99.90;;;;;;6304992;22;20673;-74
2024/03/29 06:05:37;;;;;;;0.40;0.40;;;6.70;99.90;;;;;;6305047;22;20195;-74
2024/03/29 06:08:05;;;;;;;3.60;0.35;;;6.70;99.90;;;;;;6305792;22;20180;-75
2024/03/29 06:10:33;;;;;;;0.20;0.20;;;6.80;99.90;;;;;;6304652;22;20274;-73
2024/03/29 06:13:06;;;;;;;0.75;0.55;;;6.80;99.90;;;;;;6315213;22;20186;-74
2024/03/29 06:18:18;;;;;;;0.32;0.20;;;6.90;99.90;;;;;;6315712;22;20484;-74
2024/03/29 06:20:45;;;;;;;0.73;0.73;;;7.00;99.90;;;;;;6305142;22;20213;-73
2024/03/29 06:23:12;;;;;;;0.47;0.47;;;7.00;99.90;;;;;;6305291;22;20179;-73
2024/03/29 06:25:40;;;;;;;0.30;0.30;;;7.10;99.90;;;;;;6304962;22;20209;-73
2024/03/29 06:28:07;;;;;;;1.95;0.38;;;7.10;99.90;;;;;;6305254;22;20207;-74
2024/03/29 06:30:34;;;;;;;0.77;0.40;;;7.30;99.90;;;;;;6317252;22;20203;-75
2024/03/29 06:33:02;;;;;;;0.50;0.50;;;7.40;99.90;;;;;;6315545;22;20506;-74
2024/03/29 06:35:29;;;;;;;3.50;0.30;;;7.40;99.90;;;;;;6304861;22;20178;-73
2024/03/29 06:37:56;;;;;;;0.50;0.50;;;7.40;99.90;;;;;;6305181;22;20176;-73
2024/03/29 06:40:23;;;;;;;0.70;0.70;;;7.50;99.90;;;;;;6304734;22;20180;-74
2024/03/29 06:42:51;;;;;;;0.35;0.35;;;7.50;99.90;;;;;;6304971;22;20506;-74
2024/03/29 06:45:18;;;;;;;2.95;0.43;;;7.60;99.90;;;;;;6304872;22;20199;-73
2024/03/29 06:47:45;;;;;;;0.57;0.47;;;7.70;99.90;;;;;;6305278;22;20200;-73
2024/03/29 06:50:12;;;;;;;0.40;0.40;;;7.80;99.90;;;;;;6304999;22;20525;-73
2024/03/29 06:52:39;;;;;;;0.25;0.25;;;7.80;99.90;;;;;;6305340;22;20176;-74
2024/03/29 06:55:06;;;;;;;0.30;0.30;;;7.90;99.90;;;;;;6304488;22;20178;-74
2024/03/29 06:57:35;;;;;;;0.50;0.50;;;7.90;99.90;;;;;;6305137;22;20597;-72
2024/03/29 07:00:04;;;;;;;0.40;0.40;;;8.00;99.90;;;;;;6304478;22;20191;-74
2024/03/29 07:02:30;;;;;;;8.68;1.00;;;8.00;99.90;;;;;;6304883;22;20211;-74
2024/03/29 07:04:57;;;;;;;1.75;0.60;;;8.10;99.90;;;;;;6304331;22;20196;-74
2024/03/29 07:07:24;;;;;;;0.38;0.35;;;8.20;99.90;;;;;;6305512;22;20639;-74
2024/03/29 07:09:50;;;;;;;0.30;0.30;;;8.20;99.90;;;;;;6305700;22;20183;-74
2024/03/29 07:12:18;;;;;;;0.40;0.40;;;8.40;99.90;;;;;;6306251;22;20550;-74
2024/03/29 07:14:44;;;;;;;6.88;0.77;;;8.60;99.90;;;;;;6305816;22;20172;-74
2024/03/29 07:17:12;;;;;;;0.75;0.40;;;8.80;99.90;;;;;;6306222;22;20180;-74
2024/03/29 07:19:39;;;;;;;0.90;0.40;;;8.90;99.90;;;;;;6306010;22;20176;-75
2024/03/29 07:22:06;;;;;;;0.30;0.30;;;9.10;99.90;;;;;;6306045;22;20196;-75
2024/03/29 07:24:32;;;;;;;3.53;0.43;;;9.20;99.90;;;;;;6305954;22;20639;-74
2024/03/29 07:26:59;;;;;;;0.30;0.30;;;9.20;99.90;;;;;;6305298;22;20176;-74
2024/03/29 07:29:26;;;;;;;0.80;0.38;;;9.30;99.90;;;;;;6304968;22;20238;-74
2024/03/29 07:31:52;;;;;;;0.30;0.30;;;9.30;99.90;;;;;;6306926;22;20269;-74
2024/03/29 07:34:20;;;;;;;0.20;0.20;;;9.30;99.90;;;;;;6307870;22;20176;-74
2024/03/29 07:36:47;;;;;;;0.88;0.32;;;9.40;99.90;;;;;;6307408;22;20410;-74
2024/03/29 07:39:13;;;;;;;1.23;1.02;;;9.40;99.90;;;;;;6307468;22;20627;-74
2024/03/29 07:41:40;;;;;;;3.60;1.95;;;9.40;99.90;;;;;;6307750;22;20234;-74
2024/03/29 07:44:08;;;;;;;9.48;7.65;;;9.50;99.90;;;;;;6307154;22;20176;-74
2024/03/29 07:46:36;;;;;;;4.43;2.22;;;9.50;99.90;;;;;;6308124;22;20256;-74
2024/03/29 07:49:03;;;;;;;4.25;3.15;;;9.50;99.90;;;;;;6307891;22;20180;-74
2024/03/29 07:51:32;;;;;;;2.42;2.33;;;9.60;99.90;;;;;;6317326;22;20505;-73
2024/03/29 07:53:58;;;;;;;4.10;3.22;;;9.60;99.90;;;;;;6307460;22;20182;-74
2024/03/29 07:56:25;;;;;;;1.85;1.75;;;9.60;99.90;;;;;;6317136;22;20168;-74
2024/03/29 07:58:53;;;;;;;3.72;3.35;;;9.60;99.90;;;;;;6307159;22;20452;-73
2024/03/29 08:01:21;;;;;;;5.03;3.65;;;9.60;99.90;;;;;;6306918;22;20679;-74
2024/03/29 08:03:47;;;;;;;7.13;4.05;;;9.60;99.90;;;;;;6306730;22;20176;-74
2024/03/29 08:06:16;;;;;;;0.55;0.55;;;9.60;99.90;;;;;;6306539;22;20196;-74
2024/03/29 08:08:45;;;;;;;1.90;1.80;;;9.50;99.90;;;;;;6307018;22;20215;-75
2024/03/29 08:11:12;;;;;;;1.30;1.20;;;9.50;99.90;;;;;;6306943;22;20214;-75
2024/03/29 08:13:39;;;;;;;0.30;0.30;;;9.40;99.90;;;;;;6306335;22;20253;-75
2024/03/29 08:16:06;;;;;;;0.85;0.85;;;9.40;99.90;;;;;;6306118;22;20176;-74
2024/03/29 08:18:33;;;;;;;0.80;0.80;;;9.40;99.90;;;;;;6306368;22;20453;-75
2024/03/29 08:21:00;;;;;;;0.65;0.65;;;9.40;99.90;;;;;;6307475;22;20251;-76
2024/03/29 08:23:27;;;;;;;2.50;1.20;;;9.40;99.90;;;;;;6306025;22;20183;-75
2024/03/29 08:25:56;;;;;;;0.80;0.80;;;9.40;99.90;;;;;;6305944;22;20200;-75
2024/03/29 08:28:23;;;;;;;5.30;0.85;;;9.40;99.90;;;;;;6306476;22;20188;-75
2024/03/29 08:30:59;;;;;;;0.75;0.75;;;9.40;99.90;;;;;;6306255;22;20196;-75
2024/03/29 08:33:26;;;;;;;0.50;0.50;;;9.30;99.90;;;;;;6316589;22;20233;-75
2024/03/29 08:35:53;;;;;;;0.38;0.38;;;9.30;99.90;;;;;;6305848;22;20456;-74
2024/03/29 08:38:20;;;;;;;1.60;0.73;;;9.30;99.90;;;;;;6306030;22;20650;-75
2024/03/29 08:40:48;;;;;;;0.43;0.38;;;9.30;99.90;;;;;;6315995;22;20192;-75
2024/03/29 08:43:16;;;;;;;0.73;0.73;;;9.30;99.90;;;;;;6316106;22;20176;-75
2024/03/29 08:45:43;;;;;;;0.30;0.30;;;9.40;99.90;;;;;;6305443;22;20512;-75
2024/03/29 08:48:09;;;;;;;0.20;0.20;;;9.40;99.90;;;;;;6306324;22;20239;-73
2024/03/29 08:50:37;;;;;;;0.50;0.47;;;9.50;99.90;;;;;;6305881;22;20201;-73
2024/03/29 08:53:05;;;;;;;0.77;0.50;;;9.50;99.90;;;;;;6306085;22;20182;-73
2024/03/29 08:55:32;;;;;;;0.52;0.52;;;9.60;99.90;;;;;;6316233;22;20171;-74
2024/03/29 08:57:59;;;;;;;1.25;1.08;;;9.60;99.90;;;;;;6306160;22;20187;-74
2024/03/29 09:00:27;;;;;;;0.30;0.30;;;9.50;99.90;;;;;;6305941;22;20201;-73
2024/03/29 09:02:54;;;;;;;0.43;0.30;;;9.50;99.90;;;;;;6316666;22;20203;-73
2024/03/29 09:05:22;;;;;;;0.20;0.20;;;9.50;99.90;;;;;;6306033;22;20268;-74
2024/03/29 09:07:49;;;;;;;0.30;0.30;;;9.50;99.90;;;;;;6306125;22;20176;-73
2024/03/29 09:10:16;;;;;;;0.40;0.30;;;9.40;99.90;;;;;;6305629;22;20190;-73
2024/03/29 09:12:43;;;;;;;0.30;0.30;;;9.40;99.90;;;;;;6305874;22;20521;-73
2024/03/29 09:15:13;;;;;;;0.40;0.40;;;9.30;99.90;;;;;;6305807;22;20176;-73
2024/03/29 09:17:41;;;;;;;3.10;0.75;;;9.30;99.90;;;;;;6305938;22;20186;-73
2024/03/29 09:20:08;;;;;;;0.30;0.30;;;9.20;99.90;;;;;;6306462;22;20176;-74
2024/03/29 09:22:35;;;;;;;0.32;0.32;;;9.10;99.90;;;;;;6305946;22;20184;-74
2024/03/29 09:25:03;;;;;;;0.30;0.30;;;9.10;99.90;;;;;;6305650;22;20184;-74
2024/03/29 09:27:29;;;;;;;0.38;0.38;;;9.10;99.90;;;;;;6306471;22;20184;-74
2024/03/29 09:29:56;;;;;;;0.20;0.20;;;9.10;99.90;;;;;;6316363;22;20168;-74
2024/03/29 09:32:23;;;;;;;2.15;0.60;;;9.10;99.90;;;;;;6306353;22;20199;-74
2024/03/29 09:34:52;;;;;;;0.98;0.98;;;9.10;99.90;;;;;;6305693;22;20263;-74
2024/03/29 09:37:19;;;;;;;1.15;0.30;;;9.10;99.90;;;;;;6306122;22;20176;-74
2024/03/29 09:39:46;;;;;;;1.05;0.52;;;9.10;99.90;;;;;;6306225;22;20180;-74
2024/03/29 09:42:17;;;;;;;0.82;0.40;;;9.10;99.90;;;;;;6306042;22;20203;-74
2024/03/29 09:44:45;;;;;;;2.88;1.38;;;9.10;99.90;;;;;;6315958;22;20175;-74
2024/03/29 09:47:16;;;;;;;0.73;0.73;;;9.20;99.90;;;;;;6305751;22;20245;-74
2024/03/29 09:49:44;;;;;;;0.30;0.30;;;9.10;99.90;;;;;;6305887;22;20195;-74
2024/03/29 09:52:13;;;;;;;0.38;0.35;;;9.20;99.90;;;;;;6305710;22;20273;-74
2024/03/29 09:54:40;;;;;;;0.63;0.63;;;9.30;99.90;;;;;;6305180;22;20180;-74
2024/03/29 09:57:06;;;;;;;3.22;3.13;;;9.30;99.90;;;;;;6305408;22;20178;-74
2024/03/29 09:59:34;;;;;;;0.30;0.30;;;9.30;99.90;;;;;;6307292;22;20187;-75
2024/03/29 10:02:04;;;;;;;0.85;0.35;;;9.40;99.90;;;;;;6306386;22;20294;-74
2024/03/29 10:04:32;;;;;;;1.95;1.00;;;9.50;99.90;;;;;;6306511;22;20212;-74
2024/03/29 10:06:59;;;;;;;2.25;0.70;;;9.60;99.90;;;;;;6306465;22;20218;-73
2024/03/29 10:09:29;;;;;;;0.70;0.70;;;9.60;99.90;;;;;;6306421;22;20609;-73
2024/03/29 10:11:56;;;;;;;0.40;0.40;;;9.60;99.90;;;;;;6306585;22;20713;-74
2024/03/29 10:14:23;;;;;;;0.20;0.20;;;9.60;99.90;;;;;;6306985;22;20187;-73
2024/03/29 10:16:51;;;;;;;0.50;0.50;;;9.60;99.90;;;;;;6307750;22;20226;-74
2024/03/29 10:19:18;;;;;;;2.17;0.93;;;9.60;99.90;;;;;;6307595;22;20191;-75
2024/03/29 10:21:45;;;;;;;0.40;0.40;;;9.50;99.90;;;;;;6306161;22;20203;-74
2024/03/29 10:24:14;;;;;;;2.45;0.85;;;9.50;99.90;;;;;;6306121;22;20182;-74
2024/03/29 10:26:42;;;;;;;0.82;0.50;;;9.50;99.90;;;;;;6305699;22;20192;-74
2024/03/29 10:29:09;;;;;;;0.40;0.40;;;9.50;99.90;;;;;;6306037;22;20180;-75
2024/03/29 10:31:36;;;;;;;1.27;0.85;;;9.40;99.90;;;;;;6305952;22;20196;-73
2024/03/29 10:34:05;;;;;;;1.45;1.17;;;9.40;99.90;;;;;;6305738;22;20184;-74
2024/03/29 10:36:35;;;;;;;1.85;0.98;;;9.40;99.90;;;;;;6307144;22;20179;-74
2024/03/29 10:39:03;;;;;;;0.73;0.73;;;9.50;99.90;;;;;;6306766;22;20167;-74
2024/03/29 10:41:30;;;;;;;0.45;0.45;;;9.50;99.90;;;;;;6309640;22;20278;-74
2024/03/29 10:44:00;;;;;;;0.82;0.82;;;9.60;99.90;;;;;;6308207;22;20211;-73
2024/03/29 10:46:28;;;;;;;7.82;0.50;;;9.60;99.90;;;;;;6307824;22;20183;-75
2024/03/29 10:48:55;;;;;;;1.20;0.40;;;9.70;99.90;;;;;;6306703;22;20236;-75
2024/03/29 10:51:23;;;;;;;0.52;0.52;;;9.70;99.90;;;;;;6306763;22;20201;-75
2024/03/29 10:53:52;;;;;;;1.58;0.60;;;9.80;99.90;;;;;;6316989;22;20511;-74
2024/03/29 10:56:22;;;;;;;0.65;0.65;;;9.90;99.90;;;;;;6307496;22;20171;-74
2024/03/29 10:58:55;;;;;;;1.50;1.50;;;9.90;99.90;;;;;;6306730;22;20190;-74
2024/03/29 11:01:25;;;;;;;1.80;1.70;;;10.00;99.90;;;;;;6306810;22;20209;-74
2024/03/29 11:03:55;;;;;;;4.97;2.97;;;10.00;99.90;;;;;;6308520;22;20160;-72
2024/03/29 11:06:27;;;;;;;2.55;2.35;;;10.10;99.90;;;;;;6308070;22;20206;-73
2024/03/29 11:08:58;;;;;;;0.95;0.95;;;10.20;99.90;;;;;;6308415;22;20233;-72
2024/03/29 11:11:30;;;;;;;2.40;2.30;;;10.30;99.90;;;;;;6307893;22;20314;-72
2024/03/29 11:14:04;;;;;;;1.95;1.85;;;10.40;99.90;;;;;;6307729;22;20446;-72
2024/03/29 11:16:32;;;;;;;2.42;2.08;;;10.50;99.90;;;;;;6307595;22;20225;-72
2024/03/29 11:19:01;;;;;;;2.53;1.67;;;10.70;99.90;;;;;;6307626;22;20176;-72
2024/03/29 11:21:30;;;;;;;2.27;2.17;;;10.90;99.90;;;;;;6307800;22;20938;-72
2024/03/29 11:23:57;;;;;;;4.43;4.03;;;11.20;99.90;;;;;;6308046;22;20414;-73
2024/03/29 11:26:25;;;;;;;4.00;2.00;;;11.40;99.90;;;;;;6307851;22;20446;-73
2024/03/29 11:28:53;;;;;;;1.80;1.80;;;11.60;99.90;;;;;;6308162;22;20418;-73
2024/03/29 11:31:23;;;;;;;2.40;2.20;;;11.60;99.90;;;;;;6306329;22;20434;-72
2024/03/29 11:33:53;;;;;;;1.53;1.43;;;11.60;99.90;;;;;;6306823;22;20738;-72
2024/03/29 11:36:23;;;;;;;4.13;3.80;;;11.60;99.90;;;;;;6307472;22;20410;-72
2024/03/29 11:38:52;;;;;;;2.53;2.20;;;11.80;99.90;;;;;;6306595;22;20434;-73
2024/03/29 11:41:21;;;;;;;5.73;2.60;;;12.00;99.90;;;;;;6306613;22;20444;-73
2024/03/29 11:43:48;;;;;;;3.43;3.20;;;12.10;99.90;;;;;;6306923;22;20751;-72
2024/03/29 11:46:15;;;;;;;3.63;2.00;;;12.00;99.90;;;;;;6305962;22;20472;-74
2024/03/29 11:48:43;;;;;;;4.67;3.80;;;12.00;99.90;;;;;;6306845;22;20414;-73
2024/03/29 11:51:14;;;;;;;10.37;3.60;;;12.00;99.90;;;;;;6306497;22;20465;-73
2024/03/29 11:53:41;;;;;;;3.70;2.93;;;11.90;99.90;;;;;;6307262;22;20871;-73
2024/03/29 11:56:08;;;;;;;2.60;1.73;;;11.90;99.90;;;;;;6306980;22;20410;-74
2024/03/29 11:58:35;;;;;;;1.00;1.00;;;11.90;99.90;;;;;;6306669;22;20540;-73
2024/03/29 12:01:03;;;;;;;2.93;1.87;;;11.80;99.90;;;;;;6306336;22;20441;-73
2024/03/29 12:03:31;;;;;;;2.23;2.03;;;11.80;99.90;;;;;;6306175;22;20910;-73
2024/03/29 12:05:58;;;;;;;7.40;3.37;;;11.80;99.90;;;;;;6306104;22;20422;-73
2024/03/29 12:08:27;;;;;;;2.00;1.80;;;11.80;99.90;;;;;;6306695;22;20488;-73
2024/03/29 12:10:53;;;;;;;1.00;1.00;;;11.80;99.90;;;;;;6306481;22;20834;-73
2024/03/29 12:13:20;;;;;;;2.33;2.23;;;11.80;99.90;;;;;;6306294;22;20418;-73
2024/03/29 12:15:47;;;;;;;6.40;5.27;;;11.80;99.90;;;;;;6306098;22;20414;-73
2024/03/29 12:18:16;;;;;;;5.20;3.80;;;11.80;99.90;;;;;;6306090;22;20418;-73
2024/03/29 12:20:46;;;;;;;4.50;3.70;;;11.80;99.90;;;;;;6306227;22;20440;-72
2024/03/29 12:23:14;;;;;;;0.70;0.70;;;11.80;99.90;;;;;;6306483;22;20501;-74
2024/03/29 12:25:42;;;;;;;10.37;5.87;;;11.90;99.90;;;;;;6306184;22;20414;-73
2024/03/29 12:28:10;;;;;;;3.37;3.07;;;12.00;99.90;;;;;;6306614;22;20750;-73
2024/03/29 12:30:37;;;;;;;1.23;1.23;;;12.10;99.90;;;;;;6306332;22;20435;-73
2024/03/29 12:33:06;;;;;;;1.93;1.83;;;12.10;99.90;;;;;;6306936;22;20429;-72
2024/03/29 12:35:33;;;;;;;1.50;1.40;;;11.90;99.90;;;;;;6306235;22;20422;-74
2024/03/29 12:38:01;;;;;;;2.93;2.80;;;11.90;99.90;;;;;;6306453;22;20418;-73
2024/03/29 12:40:32;;;;;;;0.53;0.53;;;11.80;99.90;;;;;;6305860;22;20425;-73
2024/03/29 12:43:02;;;;;;;1.57;1.57;;;11.80;99.90;;;;;;6306537;22;20406;-73
2024/03/29 12:45:29;;;;;;;1.10;1.10;;;11.80;99.90;;;;;;6306091;22;20409;-72
2024/03/29 12:47:56;;;;;;;0.90;0.90;;;11.70;99.90;;;;;;6305808;22;20442;-73
2024/03/29 12:50:27;;;;;;;1.63;1.63;;;11.70;99.90;;;;;;6306278;22;20607;-73
2024/03/29 12:52:55;;;;;;;1.60;0.43;;;11.70;99.90;;;;;;6306492;22;20909;-73
2024/03/29 12:55:23;;;;;;;1.13;1.03;;;11.70;99.90;;;;;;6305750;22;20415;-73
2024/03/29 12:57:50;;;;;;;5.17;3.00;;;11.70;99.90;;;;;;6305634;22;20425;-73
2024/03/29 13:00:18;;;;;;;2.00;1.90;;;11.70;99.90;;;;;;6305614;22;20420;-73
2024/03/29 13:02:45;;;;;;;2.30;2.17;;;11.70;99.90;;;;;;6305990;22;20397;-73
2024/03/29 13:05:11;;;;;;;2.90;2.77;;;11.70;99.90;;;;;;6305045;22;20740;-73
2024/03/29 13:07:38;;;;;;;1.23;1.23;;;11.70;99.90;;;;;;6305583;22;20557;-73
2024/03/29 13:10:12;;;;;;;1.60;1.50;;;11.80;99.90;;;;;;6305573;22;20719;-73
2024/03/29 13:12:39;;;;;;;0.70;0.70;;;11.80;99.90;;;;;;6305953;22;20408;-73
2024/03/29 13:15:18;;;;;;;1.40;1.40;;;11.80;99.90;;;;;;6305402;22;20531;-73
2024/03/29 13:17:46;;;;;;;0.50;0.50;;;11.70;99.90;;;;;;6305657;22;20395;-72
2024/03/29 13:20:15;;;;;;;1.30;0.97;;;11.50;99.90;;;;;;6305519;22;20414;-73
2024/03/29 13:22:44;;;;;;;2.00;1.30;;;11.50;99.90;;;;;;6306032;22;20414;-72
2024/03/29 13:25:11;;;;;;;1.60;1.60;;;11.60;99.90;;;;;;6305769;22;20420;-73
2024/03/29 13:27:38;;;;;;;1.47;1.47;;;11.60;99.90;;;;;;6305654;22;20438;-73
2024/03/29 13:30:06;;;;;;;1.27;1.10;;;11.60;99.90;;;;;;6305629;22;20419;-73
2024/03/29 13:32:35;;;;;;;2.50;1.10;;;11.60;99.90;;;;;;6305539;22;20810;-73
2024/03/29 13:35:05;;;;;;;1.00;1.00;;;11.60;99.90;;;;;;6305489;22;20723;-72
2024/03/29 13:37:32;;;;;;;2.60;2.50;;;11.60;99.90;;;;;;6305544;22;20446;-73
2024/03/29 13:39:58;;;;;;;2.57;2.47;;;11.60;99.90;;;;;;6305732;22;20422;-73
2024/03/29 13:42:25;;;;;;;1.30;1.20;;;11.60;99.90;;;;;;6305255;22;20911;-72
2024/03/29 13:44:53;;;;;;;0.83;0.83;;;11.60;99.90;;;;;;6305110;22;20414;-71
2024/03/29 13:47:19;;;;;;;0.70;0.70;;;11.60;99.90;;;;;;6305131;22;20739;-72
2024/03/29 13:49:50;;;;;;;1.33;1.33;;;11.50;99.90;;;;;;6304915;22;20921;-72
2024/03/29 13:52:17;;;;;;;2.10;1.13;;;11.40;99.90;;;;;;6304760;22;20434;-72
2024/03/29 13:54:46;;;;;;;1.50;1.40;;;11.40;99.90;;;;;;6305290;22;20413;-73
2024/03/29 13:57:13;;;;;;;0.97;0.87;;;11.40;99.90;;;;;;6305079;22;20410;-73
2024/03/29 13:59:42;;;;;;;1.50;1.50;;;11.40;99.90;;;;;;6305379;22;20497;-72
2024/03/29 14:02:09;;;;;;;2.40;2.30;;;11.40;99.90;;;;;;6305320;22;20442;-72
2024/03/29 14:04:36;;;;;;;1.70;1.60;;;11.50;99.90;;;;;;6305323;22;20742;-72
2024/03/29 14:07:07;;;;;;;1.20;1.20;;;11.50;99.90;;;;;;6315129;22;20438;-72
2024/03/29 14:09:33;;;;;;;0.87;0.87;;;11.50;99.90;;;;;;6305172;22;20441;-72
2024/03/29 14:12:00;;;;;;;1.20;1.10;;;11.70;99.90;;;;;;6304899;22;20985;-72
2024/03/29 14:14:27;;;;;;;0.93;0.93;;;11.80;99.90;;;;;;6305188;22;20418;-73
2024/03/29 14:16:53;;;;;;;3.30;2.47;;;11.90;99.90;;;;;;6314826;22;20918;-73
2024/03/29 14:19:20;;;;;;;2.53;2.33;;;12.00;99.90;;;;;;6304446;22;20418;-72
2024/03/29 14:21:47;;;;;;;2.87;2.73;;;12.10;99.90;;;;;;6304513;22;20909;-72
2024/03/29 14:24:15;;;;;;;2.80;2.70;;;12.30;99.90;;;;;;6314892;22;20422;-72
2024/03/29 14:26:43;;;;;;;1.70;1.70;;;12.30;99.90;;;;;;6306919;22;20422;-73
2024/03/29 14:29:11;;;;;;;1.30;1.30;;;12.30;99.90;;;;;;6315083;22;20494;-72
2024/03/29 14:31:38;;;;;;;1.30;1.30;;;12.40;99.90;;;;;;6304819;22;20808;-71
2024/03/29 14:34:05;;;;;;;4.43;4.13;;;12.40;99.90;;;;;;6304555;22;20418;-72
2024/03/29 14:36:33;;;;;;;3.33;3.23;;;12.40;99.90;;;;;;6304601;22;20425;-71
2024/03/29 14:39:00;;;;;;;1.40;1.40;;;12.50;99.90;;;;;;6304351;22;20422;-72
2024/03/29 14:41:29;;;;;;;3.90;3.63;;;12.50;99.90;;;;;;6304665;22;20524;-71
2024/03/29 14:43:56;;;;;;;1.30;1.30;;;12.50;99.90;;;;;;6305034;22;20422;-72
2024/03/29 14:46:25;;;;;;;0.70;0.70;;;12.50;99.90;;;;;;6305025;22;20489;-72
2024/03/29 14:48:51;;;;;;;4.17;2.20;;;12.60;99.90;;;;;;6305013;22;20446;-71
2024/03/29 14:51:18;;;;;;;2.50;2.40;;;12.60;99.90;;;;;;6315231;22;20449;-73
2024/03/29 14:53:49;;;;;;;1.30;1.30;;;12.80;99.90;;;;;;6304802;22;20921;-71
2024/03/29 14:56:16;;;;;;;2.00;1.90;;;12.80;99.90;;;;;;6304808;22;20435;-73
2024/03/29 14:58:44;;;;;;;1.20;1.20;;;12.90;99.90;;;;;;6305172;22;20420;-72
2024/03/29 15:01:11;;;;;;;0.93;0.93;;;13.00;99.90;;;;;;6304568;22;20492;-72
2024/03/29 15:03:38;;;;;;;1.30;1.20;;;13.00;99.90;;;;;;6304509;22;20433;-73
2024/03/29 15:06:06;;;;;;;0.93;0.93;;;13.00;99.90;;;;;;6304304;22;20851;-75
2024/03/29 15:08:32;;;;;;;1.20;1.20;;;13.00;99.90;;;;;;6304648;22;20524;-72
2024/03/29 15:10:59;;;;;;;1.20;1.20;;;12.90;99.90;;;;;;6304631;22;20456;-73
2024/03/29 15:13:26;;;;;;;1.23;1.23;;;12.90;99.90;;;;;;6304139;22;20424;-72
2024/03/29 15:15:58;;;;;;;0.87;0.87;;;13.00;99.90;;;;;;6304341;22;20420;-72
2024/03/29 15:18:25;;;;;;;1.23;0.80;;;13.00;99.90;;;;;;6304672;22;20488;-72
2024/03/29 15:20:55;;;;;;;0.87;0.57;;;13.20;99.90;;;;;;6304942;22;20522;-73
2024/03/29 15:23:24;;;;;;;0.67;0.67;;;13.20;99.90;;;;;;6304748;22;20498;-73
2024/03/29 15:25:51;;;;;;;1.53;1.53;;;13.10;99.90;;;;;;6304845;22;20441;-73
2024/03/29 15:31:10;;;;;;;2.83;2.57;;;13.00;99.90;;;;;;6304560;22;20429;-74
2024/03/29 15:33:37;;;;;;;1.33;1.23;;;13.10;99.90;;;;;;6305777;22;21266;-74
2024/03/29 15:36:05;;;;;;;2.00;1.93;;;13.10;99.90;;;;;;6306723;22;20421;-72
2024/03/29 15:38:32;;;;;;;0.93;0.93;;;13.20;99.90;;;;;;6306067;22;20417;-74
2024/03/29 15:40:59;;;;;;;0.50;0.50;;;13.20;99.90;;;;;;6306154;22;20438;-73
2024/03/29 15:43:27;;;;;;;7.73;5.47;;;13.30;99.90;;;;;;6306281;22;20418;-73
2024/03/29 15:45:55;;;;;;;2.30;2.10;;;13.30;99.90;;;;;;6306105;22;20418;-73
2024/03/29 15:48:23;;;;;;;6.17;3.57;;;13.30;99.90;;;;;;6306538;22;20446;-73
2024/03/29 15:50:50;;;;;;;2.07;1.97;;;13.40;99.90;;;;;;6305735;22;20470;-73
2024/03/29 15:53:17;;;;;;;3.30;3.00;;;13.40;99.90;;;;;;6307144;22;20440;-74
2024/03/29 15:55:44;;;;;;;3.23;1.90;;;13.30;99.90;;;;;;6307933;22;20505;-73
2024/03/29 15:58:12;;;;;;;1.00;1.00;;;13.20;99.90;;;;;;6308280;22;20410;-73
2024/03/29 16:00:42;;;;;;;1.40;1.40;;;13.00;99.90;;;;;;6307341;22;20452;-72
2024/03/29 16:03:10;;;;;;;1.80;1.70;;;12.90;99.90;;;;;;6318017;22;20897;-73
2024/03/29 16:05:38;;;;;;;1.83;1.73;;;12.80;99.90;;;;;;6307934;22;20441;-72
2024/03/29 16:08:05;;;;;;;4.93;4.40;;;12.70;99.90;;;;;;6308037;22;20441;-73
2024/03/29 16:10:32;;;;;;;2.10;2.00;;;12.60;99.90;;;;;;6307711;22;20442;-73
2024/03/29 16:12:59;;;;;;;1.80;0.90;;;12.50;99.90;;;;;;6309542;22;20421;-73
2024/03/29 16:15:26;;;;;;;1.30;1.30;;;12.40;99.90;;;;;;6310079;22;20472;-72
2024/03/29 16:17:52;;;;;;;2.00;1.90;;;12.40;99.90;;;;;;6310562;22;20967;-74
2024/03/29 16:20:18;;;;;;;0.90;0.90;;;12.30;99.90;;;;;;6310739;22;20418;-73
2024/03/29 16:22:46;;;;;;;1.90;1.10;;;12.30;99.90;;;;;;6310535;22;20453;-73
2024/03/29 16:25:12;;;;;;;1.20;1.20;;;12.30;99.90;;;;;;6310844;22;20184;-73
2024/03/29 16:27:39;;;;;;;0.80;0.80;;;12.30;99.90;;;;;;6320731;22;20441;-73
2024/03/29 16:30:06;;;;;;;3.10;1.30;;;12.30;99.90;;;;;;6311029;22;20448;-73
2024/03/29 16:32:34;;;;;;;3.10;2.90;;;12.30;99.90;;;;;;6310286;22;20438;-73
2024/03/29 16:35:00;;;;;;;2.30;2.30;;;12.30;99.90;;;;;;6310962;22;20415;-74
2024/03/29 16:37:27;;;;;;;5.33;4.90;;;12.30;99.90;;;;;;6309390;22;20480;-74
2024/03/29 16:39:54;;;;;;;5.40;4.90;;;12.30;99.90;;;;;;6312048;22;20528;-74
2024/03/29 16:42:21;;;;;;;3.47;3.27;;;12.20;99.90;;;;;;6310069;22;20438;-72
2024/03/29 16:44:46;;;;;;;4.07;2.10;;;12.20;99.90;;;;;;6321274;22;20489;-73
2024/03/29 16:47:13;;;;;;;1.87;1.77;;;12.10;99.90;;;;;;6311227;22;20453;-72
2024/03/29 16:49:39;;;;;;;1.63;1.53;;;12.10;99.90;;;;;;6320358;22;20178;-73
2024/03/29 16:52:06;;;;;;;1.23;0.90;;;12.10;99.90;;;;;;6310087;22;20513;-74
2024/03/29 16:54:32;;;;;;;1.37;1.37;;;12.10;99.90;;;;;;6307817;22;20616;-72
2024/03/29 16:57:01;;;;;;;9.27;6.23;;;12.10;99.90;;;;;;6309548;22;20418;-75
2024/03/29 16:59:28;;;;;;;3.10;1.80;;;12.00;99.90;;;;;;6310166;22;20203;-75
2024/03/29 17:01:55;;;;;;;2.10;1.70;;;12.00;99.90;;;;;;6309205;22;20775;-72
2024/03/29 17:04:20;;;;;;;1.33;1.33;;;12.00;99.90;;;;;;6310252;22;20422;-72
2024/03/29 17:06:47;;;;;;;3.80;1.93;;;12.00;99.90;;;;;;6309103;22;20434;-72
2024/03/29 17:09:34;;;;;;;10.87;6.37;;;11.90;99.90;;;;;;6310001;22;20531;-73
2024/03/29 17:12:02;;;;;;;2.57;2.47;;;11.80;99.90;;;;;;6306860;22;20438;-73
2024/03/29 17:14:29;;;;;;;1.43;1.43;;;11.80;99.90;;;;;;6306266;22;20418;-73
2024/03/29 17:16:59;;;;;;;6.67;4.60;;;11.60;99.90;;;;;;6306046;22;20424;-73
2024/03/29 17:19:26;;;;;;;2.40;1.40;;;11.50;99.90;;;;;;6306364;22;20708;-74
2024/03/29 17:21:53;;;;;;;7.60;4.87;;;11.50;99.90;;;;;;6307455;22;20517;-73
2024/03/29 17:24:18;;;;;;;2.73;2.50;;;11.50;99.90;;;;;;6308651;22;20799;-75
2024/03/29 17:26:45;;;;;;;1.70;1.60;;;11.50;99.90;;;;;;6316542;22;20410;-73
2024/03/29 17:29:12;;;;;;;1.80;1.80;;;11.60;99.90;;;;;;6307718;22;20206;-72
2024/03/29 17:31:40;;;;;;;3.20;3.00;;;11.50;99.90;;;;;;6311239;22;20442;-73
2024/03/29 17:34:07;;;;;;;5.70;3.42;;;11.50;99.90;;;;;;6308793;22;20966;-74
2024/03/29 17:36:33;;;;;;;2.15;2.00;;;11.50;99.90;;;;;;6312401;22;20544;-73
2024/03/29 17:39:00;;;;;;;2.90;2.80;;;11.50;99.90;;;;;;6312611;22;20247;-73
2024/03/29 17:41:27;;;;;;;4.43;4.20;;;11.50;99.90;;;;;;6309658;22;20649;-73
2024/03/29 17:43:53;;;;;;;8.33;7.07;;;11.40;99.90;;;;;;6309433;22;20472;-74
2024/03/29 17:46:21;;;;;;;4.93;4.57;;;11.40;99.90;;;;;;6310344;22;20419;-73
2024/03/29 17:48:47;;;;;;;5.25;4.95;;;11.40;99.90;;;;;;6309936;22;20200;-74
2024/03/29 17:51:14;;;;;;;3.00;2.80;;;11.30;99.90;;;;;;6309832;22;20267;-72
2024/03/29 17:53:40;;;;;;;3.50;3.30;;;11.30;99.90;;;;;;6319732;22;20428;-72
2024/03/29 17:56:07;;;;;;;9.77;6.80;;;11.30;99.90;;;;;;6310133;22;20902;-73
2024/03/29 17:58:33;;;;;;;4.33;4.03;;;11.20;99.90;;;;;;6311034;22;20231;-72